Time;durP1;ratioP1;P1;durP2;ratioP2;P2;SDS_P1;SDS_P2;PMS_P1;PMS_P2;Temp;Humidity;BMP_temperature;BMP_pressure;BME280_temperature;BME280_humidity;BME280_pressure;Samples;Min_cycle;Max_cycle;Signal;HPM_P1;HPM_P2
2023/06/20 07:01:20;;;;;;;0.65;0.65;;;29.70;99.90;34.30;100912.00;;;;6247397;22;1418897;-63
2023/06/20 07:03:49;;;;;;;0.10;0.10;;;29.90;99.90;34.70;100904.00;;;;6281980;22;20199;-63
2023/06/20 07:06:18;;;;;;;0.57;0.57;;;30.20;99.90;35.20;100896.00;;;;6309872;22;20172;-63
2023/06/20 07:08:44;;;;;;;0.10;0.10;;;30.90;99.90;35.00;100900.00;;;;6309235;22;20227;-63
2023/06/20 07:11:12;;;;;;;0.20;0.20;;;30.90;99.90;35.10;100896.00;;;;6309724;22;20169;-63
2023/06/20 07:13:44;;;;;;;0.17;0.17;;;31.10;99.90;33.10;100936.00;;;;6309566;22;20141;-63
2023/06/20 07:16:13;;;;;;;0.10;0.10;;;30.10;99.90;34.20;100924.00;;;;6282525;22;20205;-63
2023/06/20 07:18:43;;;;;;;0.10;0.10;;;30.30;99.90;35.10;100912.00;;;;6281884;22;20228;-63
2023/06/20 07:21:09;;;;;;;0.40;0.40;;;30.50;99.90;33.80;100925.00;;;;6309370;22;20137;-63
2023/06/20 07:23:35;;;;;;;0.22;0.22;;;30.80;99.90;33.30;100943.00;;;;6308533;22;20160;-63
2023/06/20 07:26:01;;;;;;;0.45;0.30;;;30.00;99.90;32.80;100948.00;;;;6309071;22;20229;-63
2023/06/20 07:28:32;;;;;;;0.10;0.10;;;30.00;99.90;34.90;100922.00;;;;6282103;22;20148;-63
2023/06/20 07:30:58;;;;;;;0.43;0.30;;;30.50;99.90;35.20;100922.00;;;;6309043;22;20182;-63
2023/06/20 07:33:29;;;;;;;1.20;1.17;;;30.90;99.90;36.20;100907.00;;;;6309142;22;20201;-63
2023/06/20 07:35:55;;;;;;;0.80;0.52;;;31.70;99.90;34.30;100939.00;;;;6309161;22;20164;-63
2023/06/20 07:38:21;;;;;;;0.30;0.30;;;30.90;99.90;33.40;100959.00;;;;6281452;22;20137;-63
2023/06/20 07:40:49;;;;;;;0.38;0.35;;;30.80;99.90;34.70;100948.00;;;;6282042;22;20584;-62
2023/06/20 07:43:19;;;;;;;2.60;2.40;;;30.70;99.90;34.20;100958.00;;;;6281803;22;20556;-63
2023/06/20 07:45:48;;;;;;;0.25;0.25;;;30.80;99.90;35.40;100907.00;;;;6281633;22;20487;-63
2023/06/20 07:48:14;;;;;;;0.40;0.40;;;31.40;99.90;33.80;100963.00;;;;6309306;22;20193;-63
2023/06/20 07:50:40;;;;;;;0.35;0.35;;;30.70;99.90;34.20;100955.00;;;;6309097;22;20231;-63
2023/06/20 07:53:08;;;;;;;0.20;0.20;;;30.70;99.90;33.90;100960.00;;;;6281769;22;20151;-63
2023/06/20 07:55:38;;;;;;;0.10;0.10;;;30.80;99.90;34.90;100943.00;;;;6256094;22;20152;-63
2023/06/20 07:58:08;;;;;;;0.43;0.43;;;30.80;99.90;35.10;100929.00;;;;6309286;22;20197;-63
2023/06/20 08:00:38;;;;;;;0.75;0.73;;;31.40;99.90;36.40;100905.00;;;;6308409;22;20171;-63
2023/06/20 08:03:04;;;;;;;0.17;0.17;;;32.10;99.90;35.20;100922.00;;;;6309167;22;20160;-63
2023/06/20 08:05:33;;;;;;;0.10;0.10;;;32.00;99.90;34.10;100947.00;;;;6308435;22;20197;-63
2023/06/20 08:08:01;;;;;;;0.82;0.73;;;31.20;99.90;34.50;100943.00;;;;6309128;22;20149;-63
2023/06/20 08:10:27;;;;;;;0.50;0.50;;;31.30;99.90;34.30;100943.00;;;;6309097;22;20564;-63
2023/06/20 08:12:53;;;;;;;0.35;0.22;;;31.00;99.90;35.30;100920.00;;;;6308973;22;20176;-63
2023/06/20 08:15:19;;;;;;;0.30;0.30;;;31.50;99.90;36.40;100890.00;;;;6255845;22;20188;-63
2023/06/20 08:17:45;;;;;;;1.40;0.75;;;32.10;99.90;35.20;100901.00;;;;6308886;22;20148;-63
2023/06/20 08:20:14;;;;;;;0.95;0.80;;;32.20;99.90;33.60;100945.00;;;;6308584;22;20183;-63
2023/06/20 08:22:40;;;;;;;0.47;0.35;;;31.30;99.90;33.30;100969.00;;;;6308912;22;20167;-63
2023/06/20 08:25:06;;;;;;;0.28;0.20;;;30.50;99.90;34.20;100945.00;;;;6308957;22;20194;-63
2023/06/20 08:27:35;;;;;;;0.10;0.10;;;30.50;99.90;35.30;100935.00;;;;6308729;22;20144;-63
2023/06/20 08:30:06;;;;;;;1.35;1.20;;;31.30;99.90;36.20;100911.00;;;;6281701;22;20160;-63
2023/06/20 08:32:38;;;;;;;0.13;0.13;;;32.30;99.90;36.50;100894.00;;;;6255829;22;20188;-63
2023/06/20 08:35:04;;;;;;;0.65;0.65;;;32.30;99.90;34.80;100941.00;;;;6308477;22;20192;-63
2023/06/20 08:37:35;;;;;;;2.08;1.50;;;32.10;99.90;33.80;100967.00;;;;6281426;22;20148;-63
2023/06/20 08:40:01;;;;;;;0.45;0.45;;;31.20;99.90;33.80;100966.00;;;;6308806;22;20175;-63
2023/06/20 08:42:30;;;;;;;0.22;0.22;;;31.00;99.90;35.20;100942.00;;;;6280930;22;20160;-63
2023/06/20 08:45:01;;;;;;;0.32;0.30;;;31.30;99.90;35.90;100926.00;;;;6255944;22;20536;-63
2023/06/20 08:47:31;;;;;;;0.93;0.93;;;31.90;99.90;35.60;100933.00;;;;6281335;22;20564;-63
2023/06/20 08:50:00;;;;;;;1.73;0.75;;;31.80;99.90;36.30;100926.00;;;;6280775;22;20563;-63
2023/06/20 08:52:37;;;;;;;0.17;0.17;;;32.30;99.90;37.20;100871.00;;;;6281220;22;20176;-63
2023/06/20 08:55:04;;;;;;;0.82;0.70;;;32.80;99.90;36.70;100892.00;;;;6255669;22;20575;-63
2023/06/20 08:57:29;;;;;;;1.02;0.55;;;33.50;99.90;34.90;100932.00;;;;6280598;22;20604;-63
2023/06/20 08:59:55;;;;;;;1.25;1.15;;;32.20;99.90;34.60;100940.00;;;;6281078;22;20165;-63
2023/06/20 09:02:23;;;;;;;0.47;0.45;;;32.00;99.90;34.10;100929.00;;;;6308234;22;20214;-63
2023/06/20 09:05:03;;;;;;;1.35;1.15;;;31.60;99.90;34.90;100948.00;;;;6308160;22;20175;-65
2023/06/20 09:07:38;;;;;;;0.75;0.57;;;31.50;99.90;34.80;100934.00;;;;6280718;22;20178;-63
2023/06/20 09:10:09;;;;;;;0.38;0.38;;;31.40;99.90;35.00;100937.00;;;;6281040;22;20213;-63
2023/06/20 09:12:53;;;;;;;0.82;0.82;;;31.60;99.90;34.70;100926.00;;;;6308168;22;20576;-63
2023/06/20 09:15:22;;;;;;;6.30;2.15;;;31.50;99.90;34.00;100954.00;;;;6280972;22;20188;-63
2023/06/20 09:18:00;;;;;;;0.57;0.57;;;31.40;99.90;35.30;100932.00;;;;6254645;22;20247;-63
2023/06/20 09:20:32;;;;;;;0.10;0.10;;;31.70;99.90;36.40;100911.00;;;;6281672;22;20223;-63
2023/06/20 09:22:59;;;;;;;0.22;0.22;;;32.30;99.90;34.80;100934.00;;;;6280700;22;20596;-65
2023/06/20 09:25:27;;;;;;;0.73;0.73;;;32.10;99.90;36.00;100910.00;;;;6255591;22;20180;-65
2023/06/20 09:27:55;;;;;;;0.43;0.43;;;32.40;99.90;36.30;100900.00;;;;6255126;22;20157;-63
2023/06/20 09:30:21;;;;;;;2.78;1.00;;;32.70;99.90;36.10;100890.00;;;;6280464;22;20161;-63
2023/06/20 09:32:51;;;;;;;0.35;0.35;;;32.70;99.90;36.80;100866.00;;;;6307562;22;20193;-63
2023/06/20 09:35:23;;;;;;;0.20;0.20;;;32.80;99.90;35.70;100891.00;;;;6307728;22;20141;-63
2023/06/20 09:37:52;;;;;;;1.23;1.13;;;32.60;99.90;35.90;100898.00;;;;6307652;22;20153;-63
2023/06/20 09:40:21;;;;;;;1.40;1.30;;;32.20;99.90;35.70;100910.00;;;;6307893;22;20569;-63
2023/06/20 09:42:59;;;;;;;0.25;0.25;;;31.80;99.90;34.60;100933.00;;;;6280562;22;20600;-63
2023/06/20 09:45:30;;;;;;;0.25;0.25;;;31.30;99.90;33.40;100958.00;;;;6280580;22;20147;-63
2023/06/20 09:48:01;;;;;;;0.10;0.10;;;30.30;99.90;32.20;100976.00;;;;6255194;22;20148;-63
2023/06/20 09:50:28;;;;;;;0.80;0.80;;;29.40;99.90;33.10;100960.00;;;;6280573;22;20136;-63
2023/06/20 09:53:15;;;;;;;0.88;0.80;;;29.50;99.90;33.80;100930.00;;;;6280328;22;20140;-63
2023/06/20 09:55:44;;;;;;;0.73;0.73;;;29.90;99.90;34.60;100925.00;;;;6307484;22;20136;-63
2023/06/20 09:58:12;;;;;;;0.38;0.38;;;30.80;99.90;35.80;100892.00;;;;6281199;22;20626;-63
2023/06/20 10:00:38;;;;;;;0.25;0.25;;;31.60;99.90;36.20;100870.00;;;;6254849;22;20550;-63
2023/06/20 10:03:11;;;;;;;0.28;0.28;;;32.20;99.90;37.70;100843.00;;;;6280265;22;20591;-63
2023/06/20 10:05:40;;;;;;;2.65;0.57;;;33.20;99.90;36.50;100852.00;;;;6280966;22;20195;-64
2023/06/20 10:08:07;;;;;;;0.10;0.10;;;33.40;99.90;37.50;100825.00;;;;6280187;22;20183;-63
2023/06/20 10:10:40;;;;;;;0.40;0.40;;;33.40;99.90;38.10;100830.00;;;;6280497;22;20140;-64
2023/06/20 10:13:06;;;;;;;0.85;0.85;;;34.10;99.90;34.80;100889.00;;;;6307785;22;20144;-63
2023/06/20 10:15:33;;;;;;;0.45;0.45;;;33.00;99.90;36.10;100873.00;;;;6307895;22;20148;-63
2023/06/20 10:18:02;;;;;;;0.52;0.52;;;32.70;99.90;36.80;100853.00;;;;6279743;22;20137;-64
2023/06/20 10:20:37;;;;;;;0.43;0.43;;;33.10;99.90;35.80;100860.00;;;;6281660;22;20214;-63
2023/06/20 10:33:39;;;;;;;0.32;0.32;;;32.50;99.90;35.70;100887.00;;;;5070154;28;20577;-63
2023/06/20 10:36:31;;;;;;;0.45;0.45;;;32.90;99.90;36.70;100866.00;;;;5050595;28;20197;-65
2023/06/20 10:39:00;;;;;;;0.10;0.10;;;33.20;99.90;36.90;100851.00;;;;5041021;28;20225;-65
2023/06/20 10:41:32;;;;;;;0.47;0.47;;;33.60;99.90;37.60;100810.00;;;;5050521;28;20228;-65
2023/06/20 10:44:08;;;;;;;0.63;0.63;;;33.90;99.90;37.10;100818.00;;;;5049990;28;20220;-65
2023/06/20 10:46:40;;;;;;;1.45;1.30;;;33.80;99.90;38.30;100817.00;;;;5048794;28;20178;-65
2023/06/20 10:49:11;;;;;;;0.40;0.40;;;34.70;99.90;37.70;100820.00;;;;5050229;28;20633;-62
2023/06/20 10:51:49;;;;;;;1.75;1.25;;;34.60;99.90;37.40;100816.00;;;;5049915;28;20237;-63
2023/06/20 10:54:22;;;;;;;0.28;0.28;;;34.10;99.90;36.50;100828.00;;;;5048894;28;20293;-65
2023/06/20 10:56:51;;;;;;;0.63;0.38;;;33.80;99.90;36.40;100834.00;;;;5039512;28;20664;-65
2023/06/20 10:59:28;;;;;;;0.10;0.10;;;33.40;99.90;36.70;100809.00;;;;5049748;28;20213;-65
2023/06/20 11:02:00;;;;;;;0.57;0.57;;;33.50;99.90;36.10;100848.00;;;;5048596;28;20264;-65
2023/06/20 11:04:29;;;;;;;0.10;0.10;;;33.20;99.90;35.50;100859.00;;;;5050053;28;20194;-65
2023/06/20 11:07:09;;;;;;;0.10;0.10;;;32.60;99.90;36.80;100834.00;;;;5049862;28;20190;-65
2023/06/20 11:09:41;;;;;;;0.20;0.20;;;32.90;99.90;34.90;100871.00;;;;5043469;28;20205;-65
2023/06/20 11:12:10;;;;;;;1.08;1.05;;;32.10;99.90;34.20;100884.00;;;;5048316;28;20205;-65
2023/06/20 11:14:50;;;;;;;0.50;0.50;;;31.40;99.90;34.70;100882.00;;;;5048153;28;20185;-62
2023/06/20 11:17:21;;;;;;;0.25;0.25;;;31.40;99.90;35.80;100869.00;;;;5048221;28;20217;-63
2023/06/20 11:19:54;;;;;;;0.35;0.35;;;32.30;99.90;36.90;100857.00;;;;5049307;28;20174;-65
2023/06/20 11:22:28;;;;;;;0.52;0.52;;;33.00;99.90;37.30;100853.00;;;;5037709;28;20197;-65
2023/06/20 11:24:59;;;;;;;2.28;1.58;;;33.50;99.90;36.70;100853.00;;;;5048352;28;20412;-65
2023/06/20 11:27:27;;;;;;;0.75;0.70;;;33.60;99.90;35.70;100873.00;;;;5048266;28;20200;-65
2023/06/20 11:29:58;;;;;;;0.47;0.20;;;33.30;99.90;34.60;100882.00;;;;5047832;28;20735;-65
2023/06/20 11:32:33;;;;;;;0.65;0.65;;;32.00;99.90;34.50;100872.00;;;;5053465;28;20231;-65
2023/06/20 11:35:06;;;;;;;0.50;0.47;;;31.40;99.90;34.50;100908.00;;;;5049333;28;20181;-62
2023/06/20 11:37:40;;;;;;;0.10;0.10;;;31.10;99.90;33.90;100923.00;;;;5047809;28;20185;-62
2023/06/20 11:40:12;;;;;;;0.68;0.63;;;30.80;99.90;34.80;100911.00;;;;5049024;28;20736;-62
2023/06/20 11:42:44;;;;;;;0.68;0.60;;;31.20;99.90;34.80;100906.00;;;;5030166;28;20198;-63
2023/06/20 11:45:26;;;;;;;0.85;0.85;;;31.30;99.90;36.70;100878.00;;;;5034463;28;20540;-63
2023/06/20 11:48:13;;;;;;;0.40;0.40;;;31.90;99.90;36.00;100870.00;;;;5019867;28;20199;-63
2023/06/20 11:50:56;;;;;;;0.22;0.22;;;32.40;99.90;34.50;100894.00;;;;5016405;28;20194;-63
2023/06/20 11:53:28;;;;;;;0.13;0.13;;;32.00;99.90;35.70;100880.00;;;;5028271;28;20231;-63
2023/06/20 11:56:24;;;;;;;0.10;0.10;;;31.90;99.90;37.10;100838.00;;;;5034356;28;20645;-63
2023/06/20 11:59:01;;;;;;;0.30;0.22;;;32.80;99.90;37.00;100833.00;;;;5029912;28;20282;-63
2023/06/20 12:01:32;;;;;;;0.20;0.20;;;32.90;99.90;35.60;100858.00;;;;5035760;28;20190;-63
2023/06/20 12:04:10;;;;;;;0.57;0.57;;;32.90;99.90;35.10;100863.00;;;;5041713;28;20211;-63
2023/06/20 12:06:52;;;;;;;0.52;0.50;;;32.00;99.90;34.10;100850.00;;;;5034400;28;20174;-63
2023/06/20 12:09:19;;;;;;;0.55;0.55;;;31.30;99.90;35.20;100856.00;;;;5034120;28;20206;-63
2023/06/20 12:11:56;;;;;;;0.10;0.10;;;31.70;99.90;36.40;100844.00;;;;5031055;28;20743;-63
2023/06/20 12:14:24;;;;;;;0.10;0.10;;;32.20;99.90;36.90;100829.00;;;;5016883;28;20190;-63
2023/06/20 12:17:03;;;;;;;0.85;0.73;;;32.50;99.90;35.80;100846.00;;;;5023050;28;20179;-63
2023/06/20 12:19:36;;;;;;;0.10;0.10;;;32.50;99.90;35.70;100848.00;;;;5035387;28;20214;-63
2023/06/20 12:22:05;;;;;;;0.43;0.22;;;32.00;99.90;35.70;100835.00;;;;5033933;28;20198;-63
2023/06/20 12:24:54;;;;;;;0.20;0.20;;;31.90;99.90;36.00;100824.00;;;;5017429;28;20193;-63
2023/06/20 12:27:42;;;;;;;0.17;0.15;;;31.80;99.90;37.70;100800.00;;;;5033614;28;20521;-65
2023/06/20 12:30:14;;;;;;;0.75;0.75;;;32.80;99.90;35.00;100814.00;;;;5034704;28;20187;-63
2023/06/20 12:32:43;;;;;;;0.10;0.10;;;32.00;99.90;35.40;100830.00;;;;5034657;28;20300;-63
2023/06/20 12:35:16;;;;;;;0.22;0.22;;;31.60;99.90;34.80;100835.00;;;;5033636;28;20664;-63
2023/06/20 12:37:47;;;;;;;0.10;0.10;;;31.70;99.90;36.10;100812.00;;;;5022420;28;20637;-63
2023/06/20 12:40:19;;;;;;;0.63;0.63;;;31.80;99.90;35.30;100821.00;;;;5033443;28;20194;-65
2023/06/20 12:42:48;;;;;;;0.38;0.38;;;31.90;99.90;35.40;100807.00;;;;5034529;28;20194;-63
2023/06/20 12:45:20;;;;;;;0.68;0.68;;;31.60;99.90;35.10;100812.00;;;;5033575;28;20240;-63
2023/06/20 12:47:48;;;;;;;0.35;0.35;;;31.70;99.90;34.40;100822.00;;;;5025212;28;20216;-63
2023/06/20 12:50:14;;;;;;;0.30;0.30;;;31.40;99.90;33.70;100808.00;;;;5034506;28;20240;-63
2023/06/20 12:52:48;;;;;;;0.63;0.52;;;30.70;99.90;34.70;100810.00;;;;5034524;28;20738;-63
2023/06/20 12:55:20;;;;;;;0.47;0.47;;;30.70;99.90;34.70;100821.00;;;;5034019;28;20660;-63
2023/06/20 12:57:53;;;;;;;0.45;0.45;;;30.80;99.90;34.00;100824.00;;;;5033313;28;20217;-63
2023/06/20 13:00:22;;;;;;;0.38;0.38;;;30.70;99.90;34.20;100827.00;;;;5033258;28;20187;-63
2023/06/20 13:02:53;;;;;;;0.40;0.40;;;30.50;99.90;34.40;100820.00;;;;5033145;28;20594;-63
2023/06/20 13:05:33;;;;;;;0.73;0.73;;;30.60;99.90;34.00;100834.00;;;;5034435;28;20206;-63
2023/06/20 13:08:03;;;;;;;0.68;0.55;;;30.60;99.90;33.90;100843.00;;;;5033974;28;20194;-63
2023/06/20 13:10:36;;;;;;;0.57;0.57;;;30.60;99.90;33.90;100850.00;;;;5034448;28;20642;-62
2023/06/20 13:13:08;;;;;;;2.25;0.80;;;30.60;99.90;33.90;100837.00;;;;5042530;28;20261;-63
2023/06/20 13:15:39;;;;;;;1.70;1.60;;;30.70;99.90;33.50;100859.00;;;;5033065;28;20186;-63
2023/06/20 13:18:11;;;;;;;4.45;2.45;;;30.40;99.90;33.70;100851.00;;;;5024224;28;20261;-63
2023/06/20 13:20:43;;;;;;;0.40;0.40;;;30.60;99.90;34.20;100847.00;;;;5034109;28;20185;-63
2023/06/20 13:23:17;;;;;;;0.25;0.25;;;30.50;99.90;35.50;100822.00;;;;5032946;28;20191;-63
2023/06/20 13:25:53;;;;;;;0.88;0.88;;;31.20;99.90;33.50;100833.00;;;;5033561;28;20269;-63
2023/06/20 13:28:25;;;;;;;0.85;0.60;;;30.70;99.90;33.70;100827.00;;;;5034446;28;20222;-62
2023/06/20 13:30:54;;;;;;;0.50;0.50;;;30.40;99.90;33.50;100826.00;;;;5033792;28;20193;-62
2023/06/20 13:33:25;;;;;;;0.20;0.20;;;30.20;99.90;33.20;100830.00;;;;5033320;28;20229;-62
2023/06/20 13:35:55;;;;;;;0.40;0.40;;;29.90;99.90;32.60;100846.00;;;;5032666;28;20179;-63
2023/06/20 13:38:44;;;;;;;0.30;0.30;;;29.60;99.90;33.20;100844.00;;;;5032259;28;20183;-63
2023/06/20 13:41:18;;;;;;;2.13;1.27;;;29.50;99.90;32.20;100856.00;;;;5034013;28;20198;-62
2023/06/20 13:43:49;;;;;;;0.30;0.30;;;29.40;99.90;32.50;100858.00;;;;5033694;28;20194;-63
2023/06/20 13:46:20;;;;;;;0.30;0.30;;;29.20;99.90;32.90;100848.00;;;;5033622;28;20179;-62
2023/06/20 13:48:52;;;;;;;0.10;0.10;;;29.20;99.90;33.30;100838.00;;;;5032999;28;20174;-62
2023/06/20 13:51:23;;;;;;;3.00;0.73;;;29.50;99.90;32.70;100855.00;;;;5016148;28;20183;-62
2023/06/20 13:53:52;;;;;;;0.15;0.15;;;29.50;99.90;33.30;100844.00;;;;5033051;28;20657;-63
2023/06/20 13:56:21;;;;;;;0.38;0.38;;;29.40;99.90;33.60;100828.00;;;;5022356;28;20226;-63
2023/06/20 13:58:52;;;;;;;2.65;0.75;;;29.70;99.90;33.40;100837.00;;;;5032461;28;20190;-63
2023/06/20 14:01:29;;;;;;;0.10;0.10;;;29.70;99.90;33.10;100837.00;;;;5033183;28;20672;-62
2023/06/20 14:04:03;;;;;;;0.75;0.75;;;29.70;99.90;31.90;100871.00;;;;5033199;28;20191;-62
2023/06/20 14:06:35;;;;;;;0.10;0.10;;;29.10;99.90;33.20;100852.00;;;;5031804;28;20207;-63
2023/06/20 14:09:16;;;;;;;2.20;1.13;;;29.20;99.90;31.80;100877.00;;;;5032666;28;20237;-62
2023/06/20 14:11:48;;;;;;;0.20;0.20;;;29.10;99.90;32.50;100873.00;;;;5032163;28;20252;-63
2023/06/20 14:14:14;;;;;;;8.80;2.80;;;28.90;99.90;31.60;100888.00;;;;5031628;28;20653;-62
2023/06/20 14:16:40;;;;;;;6.50;2.05;;;28.70;99.90;31.20;100921.00;;;;5032027;28;20198;-64
2023/06/20 14:19:14;;;;;;;1.35;1.08;;;28.40;99.90;31.00;100930.00;;;;5033272;28;20179;-64
2023/06/20 14:21:58;;;;;;;3.38;1.23;;;28.20;99.90;30.60;100951.00;;;;5032009;28;20192;-64
2023/06/20 14:24:45;;;;;;;0.30;0.30;;;27.90;99.90;30.80;100957.00;;;;5033017;28;20548;-64
2023/06/20 14:27:23;;;;;;;0.50;0.50;;;27.30;99.90;29.60;100888.00;;;;5031906;28;20320;-64
2023/06/20 14:29:59;;;;;;;0.63;0.63;;;26.50;99.90;27.50;100873.00;;;;5032001;28;20221;-62
2023/06/20 14:32:38;;;;;;;1.83;1.48;;;25.10;99.90;25.70;100855.00;;;;5032521;28;20208;-62
2023/06/20 14:35:09;;;;;;;2.22;1.95;;;24.00;99.90;25.70;100810.00;;;;5031920;28;20235;-62
2023/06/20 14:37:56;;;;;;;1.17;1.08;;;23.30;99.90;25.20;100782.00;;;;5032533;28;20194;-62
2023/06/20 14:40:29;;;;;;;0.30;0.30;;;22.80;99.90;25.80;100770.00;;;;5031764;28;20521;-64
2023/06/20 14:43:02;;;;;;;0.82;0.82;;;23.00;99.90;26.00;100770.00;;;;5033197;28;20186;-62
2023/06/20 14:45:36;;;;;;;0.10;0.10;;;22.90;99.90;26.70;100759.00;;;;5031692;28;20187;-63
2023/06/20 14:48:11;;;;;;;3.20;2.40;;;23.30;99.90;25.60;100759.00;;;;5015226;28;20186;-63
2023/06/20 14:50:42;;;;;;;3.17;2.92;;;23.10;99.90;24.80;100762.00;;;;5031439;28;20194;-62
2023/06/20 14:53:08;;;;;;;0.57;0.57;;;22.70;99.90;25.90;100684.00;;;;5032403;28;20252;-62
2023/06/20 14:55:43;;;;;;;0.20;0.20;;;22.70;99.90;26.70;100731.00;;;;5032726;28;20195;-62
2023/06/20 14:58:13;;;;;;;1.55;1.45;;;23.10;99.90;26.90;100743.00;;;;5031615;28;20218;-63
2023/06/20 15:00:47;;;;;;;0.20;0.20;;;23.40;99.90;27.10;100731.00;;;;5032591;28;20948;-63
2023/06/20 15:03:37;;;;;;;0.88;0.57;;;23.50;99.90;26.80;100735.00;;;;5032445;28;20195;-62
2023/06/20 15:06:12;;;;;;;0.60;0.60;;;23.60;99.90;27.30;100745.00;;;;5009173;28;20637;-62
2023/06/20 15:08:41;;;;;;;0.45;0.38;;;23.90;99.90;27.20;100745.00;;;;5031412;28;20619;-62
2023/06/20 15:11:09;;;;;;;0.75;0.55;;;23.90;99.90;27.70;100752.00;;;;5031239;28;20669;-62
2023/06/20 15:13:38;;;;;;;0.10;0.10;;;24.10;99.90;28.50;100765.00;;;;5032833;28;20194;-64
2023/06/20 15:16:15;;;;;;;1.35;1.20;;;24.50;99.90;27.90;100764.00;;;;5031176;28;20603;-62
2023/06/20 15:18:50;;;;;;;0.10;0.10;;;24.60;99.90;28.60;100742.00;;;;5034120;28;20629;-62
2023/06/20 15:21:19;;;;;;;0.68;0.25;;;24.80;99.90;29.00;100776.00;;;;5032035;28;20583;-63
2023/06/20 15:23:47;;;;;;;0.10;0.10;;;25.10;99.90;28.30;100771.00;;;;5036260;28;20189;-62
2023/06/20 15:26:18;;;;;;;0.20;0.20;;;25.00;99.90;28.60;100784.00;;;;5036549;28;20288;-64
2023/06/20 15:28:50;;;;;;;0.13;0.13;;;25.00;99.90;28.40;100806.00;;;;5018551;28;20255;-64
2023/06/20 15:31:24;;;;;;;1.02;0.63;;;24.80;99.90;28.90;100815.00;;;;5035976;28;20203;-64
2023/06/20 15:33:58;;;;;;;0.63;0.63;;;24.80;99.90;28.30;100799.00;;;;5034996;28;20257;-64
2023/06/20 15:36:29;;;;;;;0.30;0.30;;;24.80;99.90;28.20;100808.00;;;;5035542;28;20276;-64
2023/06/20 15:39:03;;;;;;;0.22;0.22;;;24.70;99.90;28.30;100811.00;;;;5028904;28;20216;-64
2023/06/20 15:41:35;;;;;;;0.10;0.10;;;24.60;99.90;27.50;100818.00;;;;5034692;28;20186;-64
2023/06/20 15:44:06;;;;;;;0.73;0.73;;;24.50;99.90;28.50;100822.00;;;;5035998;28;20179;-62
2023/06/20 15:46:38;;;;;;;0.20;0.20;;;24.60;99.90;28.90;100794.00;;;;5034301;28;20489;-63
2023/06/20 15:49:10;;;;;;;0.10;0.10;;;24.80;99.90;29.10;100780.00;;;;5036123;28;20228;-64
2023/06/20 15:51:40;;;;;;;0.10;0.10;;;25.00;99.90;29.40;100790.00;;;;5014873;28;20242;-64
2023/06/20 15:54:06;;;;;;;0.60;0.60;;;25.20;99.90;28.70;100783.00;;;;5032470;28;20182;-62
2023/06/20 15:56:35;;;;;;;0.10;0.10;;;25.30;99.90;29.10;100784.00;;;;5035524;28;20190;-62
2023/06/20 15:59:12;;;;;;;0.10;0.10;;;25.30;99.90;29.60;100803.00;;;;5030627;28;20198;-65
2023/06/20 16:01:46;;;;;;;0.10;0.10;;;25.40;99.90;28.60;100801.00;;;;5034533;28;20277;-62
2023/06/20 16:04:14;;;;;;;0.30;0.30;;;25.20;99.90;27.80;100797.00;;;;5031601;28;20633;-62
2023/06/20 16:06:42;;;;;;;0.20;0.20;;;24.80;99.90;28.50;100766.00;;;;5035358;28;20189;-62
2023/06/20 16:09:17;;;;;;;0.10;0.10;;;24.90;99.90;29.30;100796.00;;;;5035580;28;20528;-64
2023/06/20 16:11:51;;;;;;;0.10;0.10;;;25.20;99.90;30.10;100805.00;;;;5035212;28;20210;-65
2023/06/20 16:14:22;;;;;;;0.98;0.98;;;25.80;99.90;28.90;100801.00;;;;5035511;28;20186;-65
2023/06/20 16:17:07;;;;;;;1.25;1.15;;;25.60;99.90;28.70;100802.00;;;;5033935;28;20224;-62
2023/06/20 16:19:45;;;;;;;0.65;0.55;;;25.40;99.90;28.30;100810.00;;;;5033971;28;20191;-63
2023/06/20 16:22:16;;;;;;;0.20;0.20;;;25.20;99.90;27.50;100794.00;;;;5026897;28;20270;-63
2023/06/20 16:24:47;;;;;;;0.52;0.52;;;24.80;99.90;27.40;100789.00;;;;5033824;28;20576;-63
2023/06/20 16:27:19;;;;;;;0.20;0.20;;;24.50;99.90;27.50;100775.00;;;;5033597;28;20593;-63
2023/06/20 16:29:48;;;;;;;0.10;0.10;;;24.30;99.90;28.00;100785.00;;;;5033725;28;20657;-63
2023/06/20 16:32:19;;;;;;;0.15;0.15;;;24.50;99.90;28.90;100805.00;;;;5038037;28;20218;-63
2023/06/20 16:34:50;;;;;;;0.20;0.20;;;24.90;99.90;27.70;100799.00;;;;5028027;28;20179;-65
2023/06/20 16:37:36;;;;;;;0.10;0.10;;;24.70;99.90;28.00;100815.00;;;;5034546;28;20222;-63
2023/06/20 16:40:08;;;;;;;0.10;0.10;;;24.60;99.90;27.30;100801.00;;;;5035098;28;20211;-63
2023/06/20 16:42:37;;;;;;;0.52;0.30;;;24.20;99.90;27.70;100833.00;;;;5034724;28;20548;-63
2023/06/20 16:45:07;;;;;;;0.10;0.10;;;24.20;99.90;26.10;100789.00;;;;5026505;28;20635;-62
2023/06/20 16:47:41;;;;;;;3.13;1.25;;;23.70;99.90;25.10;100777.00;;;;5034301;28;20265;-63
2023/06/20 16:50:16;;;;;;;1.55;1.13;;;23.10;99.90;24.70;100803.00;;;;5033340;28;20174;-63
2023/06/20 16:52:47;;;;;;;2.65;1.92;;;22.50;99.90;23.90;100824.00;;;;5033388;28;20660;-62
2023/06/20 16:55:18;;;;;;;0.65;0.52;;;22.20;99.90;24.70;100776.00;;;;5016999;28;20209;-63
2023/06/20 16:57:49;;;;;;;0.70;0.70;;;22.00;99.90;25.40;100798.00;;;;5033361;28;20267;-63
2023/06/20 17:00:23;;;;;;;2.05;2.05;;;22.20;99.90;26.00;100807.00;;;;5033310;28;20270;-63
2023/06/20 17:03:01;;;;;;;2.30;2.30;;;22.40;99.90;25.90;100783.00;;;;5025769;28;20210;-63
2023/06/20 17:05:30;;;;;;;3.70;3.60;;;22.50;99.90;24.90;100808.00;;;;5030470;28;20261;-63
2023/06/20 17:08:01;;;;;;;2.40;2.40;;;22.20;99.90;25.00;100812.00;;;;5033170;28;20190;-63
2023/06/20 17:10:42;;;;;;;2.30;2.30;;;22.00;99.90;25.30;100818.00;;;;5033194;28;20194;-63
2023/06/20 17:13:14;;;;;;;2.70;2.60;;;22.00;99.90;25.90;100806.00;;;;5032908;28;20218;-63
2023/06/20 17:15:54;;;;;;;2.97;2.88;;;22.20;99.90;26.50;100792.00;;;;5034135;28;20191;-63
2023/06/20 17:18:27;;;;;;;3.28;3.15;;;22.50;99.90;26.60;100793.00;;;;5030148;28;20181;-63
2023/06/20 17:20:56;;;;;;;1.73;1.73;;;22.70;99.90;25.80;100797.00;;;;5016783;28;20286;-63
2023/06/20 17:23:35;;;;;;;1.80;1.80;;;22.50;99.90;26.20;100777.00;;;;5032670;28;20213;-63
2023/06/20 17:26:04;;;;;;;2.67;2.58;;;22.70;99.90;24.90;100803.00;;;;5032768;28;20185;-62
2023/06/20 17:28:38;;;;;;;1.85;1.73;;;22.30;99.90;24.90;100826.00;;;;5033585;28;20211;-62
2023/06/20 17:31:07;;;;;;;1.50;1.50;;;21.90;99.90;25.70;100813.00;;;;5016435;28;20183;-63
2023/06/20 17:33:39;;;;;;;1.70;1.70;;;22.20;99.90;25.50;100810.00;;;;5033692;28;20206;-62
2023/06/20 17:36:11;;;;;;;1.42;1.42;;;22.20;99.90;25.20;100822.00;;;;5033942;28;20206;-63
2023/06/20 17:38:45;;;;;;;1.50;1.50;;;22.10;99.90;25.00;100825.00;;;;5033210;28;20665;-62
2023/06/20 17:41:20;;;;;;;1.50;1.50;;;22.00;99.90;25.10;100820.00;;;;5033352;28;20190;-62
2023/06/20 17:43:54;;;;;;;2.15;2.15;;;22.00;99.90;25.60;100798.00;;;;5025775;28;20183;-62
2023/06/20 17:47:00;;;;;;;1.40;1.40;;;22.00;99.90;24.20;100826.00;;;;5033771;28;20267;-63
2023/06/20 17:49:26;;;;;;;1.40;1.40;;;21.70;99.90;24.40;100845.00;;;;5030515;28;20199;-63
2023/06/20 17:51:55;;;;;;;1.30;1.30;;;21.70;99.90;24.80;100833.00;;;;5032495;28;20211;-63
2023/06/20 17:54:24;;;;;;;1.60;1.60;;;21.70;99.90;25.20;100816.00;;;;5032425;28;20186;-63
2023/06/20 17:56:58;;;;;;;1.80;1.80;;;21.80;99.90;24.70;100821.00;;;;5033564;28;20187;-63
2023/06/20 17:59:30;;;;;;;2.00;1.90;;;21.90;99.90;24.70;100827.00;;;;5031983;28;20218;-62
2023/06/20 18:01:56;;;;;;;1.50;1.50;;;21.60;99.90;24.60;100828.00;;;;5032024;28;20282;-62
2023/06/20 18:04:43;;;;;;;1.70;1.70;;;21.60;99.90;24.70;100818.00;;;;5032151;28;20270;-63
2023/06/20 18:07:11;;;;;;;1.60;1.60;;;21.60;99.90;24.10;100828.00;;;;5027040;28;20186;-63
2023/06/20 18:09:46;;;;;;;1.60;1.60;;;21.40;99.90;24.50;100833.00;;;;5032091;28;20179;-63
2023/06/20 18:12:24;;;;;;;1.67;1.67;;;21.40;99.90;24.30;100834.00;;;;5032211;28;20202;-62
2023/06/20 18:14:55;;;;;;;1.70;1.70;;;21.30;99.90;24.60;100815.00;;;;5041377;28;20187;-62
2023/06/20 18:17:27;;;;;;;1.60;1.60;;;21.40;99.90;24.80;100816.00;;;;5010364;28;20641;-62
2023/06/20 18:20:12;;;;;;;1.52;1.52;;;21.50;99.90;24.70;100811.00;;;;5015381;28;20257;-62